Terminal Aerodrome Forecast
Issued by NWS

Home | Current Version | Previous Version | Text Only | Print | Product List | Glossary Off
Versions: 1 2 3 4 5 6 7 8 9 10 11 12 13 14 15 16 17 18 19 20 21 22 23 24 25

000
FTUS43 KBIS 270500
TAFJMS
TAF
KJMS 270526Z 2706/2806 VRB03KT 6SM BR SCT020
      TEMPO 2710/2714 3SM BR SCT010
     FM271500 16009KT P6SM SCT040
     FM280100 15005KT P6SM BKN040=

USA.gov is the U.S. government's official web portal to all federal, state and local government web resources and services.